sensor_id;sensor_type;location;lat;lon;timestamp;temperature;humidity
12957;DHT22;6543;48.836;10.092;2023-08-08T00:00:39;10.70;99.90
12957;DHT22;6543;48.836;10.092;2023-08-08T00:03:07;10.70;99.90
12957;DHT22;6543;48.836;10.092;2023-08-08T00:05:34;10.60;99.90
12957;DHT22;6543;48.836;10.092;2023-08-08T00:08:03;10.70;99.90
12957;DHT22;6543;48.836;10.092;2023-08-08T00:10:30;10.50;99.90
12957;DHT22;6543;48.836;10.092;2023-08-08T00:12:56;10.50;99.90
12957;DHT22;6543;48.836;10.092;2023-08-08T00:15:23;10.30;99.90
12957;DHT22;6543;48.836;10.092;2023-08-08T00:17:50;10.30;99.90
12957;DHT22;6543;48.836;10.092;2023-08-08T00:20:17;10.40;99.90
12957;DHT22;6543;48.836;10.092;2023-08-08T00:22:44;10.20;99.90
12957;DHT22;6543;48.836;10.092;2023-08-08T00:25:12;10.20;99.90
12957;DHT22;6543;48.836;10.092;2023-08-08T00:27:39;10.10;99.90
12957;DHT22;6543;48.836;10.092;2023-08-08T00:30:10;10.20;99.90
12957;DHT22;6543;48.836;10.092;2023-08-08T00:32:37;10.20;99.90
12957;DHT22;6543;48.836;10.092;2023-08-08T00:35:05;10.20;99.90
12957;DHT22;6543;48.836;10.092;2023-08-08T00:37:32;10.10;99.90
12957;DHT22;6543;48.836;10.092;2023-08-08T00:39:59;10.00;99.90
12957;DHT22;6543;48.836;10.092;2023-08-08T00:42:27;10.00;99.90
12957;DHT22;6543;48.836;10.092;2023-08-08T00:44:54;10.10;99.90
12957;DHT22;6543;48.836;10.092;2023-08-08T00:47:27;10.10;99.90
12957;DHT22;6543;48.836;10.092;2023-08-08T00:49:54;10.20;99.90
12957;DHT22;6543;48.836;10.092;2023-08-08T00:52:21;10.20;99.90
12957;DHT22;6543;48.836;10.092;2023-08-08T00:54:48;10.20;99.90
12957;DHT22;6543;48.836;10.092;2023-08-08T00:57:16;10.20;99.90
12957;DHT22;6543;48.836;10.092;2023-08-08T00:59:44;10.30;99.90
12957;DHT22;6543;48.836;10.092;2023-08-08T01:02:11;10.20;99.90
12957;DHT22;6543;48.836;10.092;2023-08-08T01:04:38;10.20;99.90
12957;DHT22;6543;48.836;10.092;2023-08-08T01:07:10;10.20;99.90
12957;DHT22;6543;48.836;10.092;2023-08-08T01:09:41;10.20;99.90
12957;DHT22;6543;48.836;10.092;2023-08-08T01:12:13;10.20;99.90
12957;DHT22;6543;48.836;10.092;2023-08-08T01:14:44;10.20;99.90
12957;DHT22;6543;48.836;10.092;2023-08-08T01:17:11;10.20;99.90
12957;DHT22;6543;48.836;10.092;2023-08-08T01:19:39;10.20;99.90
12957;DHT22;6543;48.836;10.092;2023-08-08T01:22:10;10.20;99.90
12957;DHT22;6543;48.836;10.092;2023-08-08T01:24:42;10.20;99.90
12957;DHT22;6543;48.836;10.092;2023-08-08T01:27:10;10.30;99.90
12957;DHT22;6543;48.836;10.092;2023-08-08T01:29:37;10.20;99.90
12957;DHT22;6543;48.836;10.092;2023-08-08T01:32:05;10.20;99.90
12957;DHT22;6543;48.836;10.092;2023-08-08T01:34:32;10.20;99.90
12957;DHT22;6543;48.836;10.092;2023-08-08T01:37:03;10.20;99.90
12957;DHT22;6543;48.836;10.092;2023-08-08T01:39:33;10.30;99.90
12957;DHT22;6543;48.836;10.092;2023-08-08T01:42:03;10.30;99.90
12957;DHT22;6543;48.836;10.092;2023-08-08T01:44:31;10.40;99.90
12957;DHT22;6543;48.836;10.092;2023-08-08T01:46:58;10.40;99.90
12957;DHT22;6543;48.836;10.092;2023-08-08T01:49:25;10.40;99.90
12957;DHT22;6543;48.836;10.092;2023-08-08T01:51:52;10.50;99.90
12957;DHT22;6543;48.836;10.092;2023-08-08T01:54:19;10.50;99.90
12957;DHT22;6543;48.836;10.092;2023-08-08T01:56:46;10.50;99.90
12957;DHT22;6543;48.836;10.092;2023-08-08T01:59:14;10.50;99.90
12957;DHT22;6543;48.836;10.092;2023-08-08T02:01:41;10.50;99.90
12957;DHT22;6543;48.836;10.092;2023-08-08T02:04:08;10.60;99.90
12957;DHT22;6543;48.836;10.092;2023-08-08T02:06:34;10.60;99.90
12957;DHT22;6543;48.836;10.092;2023-08-08T02:09:01;10.60;99.90
12957;DHT22;6543;48.836;10.092;2023-08-08T02:11:28;10.60;99.90
12957;DHT22;6543;48.836;10.092;2023-08-08T02:13:55;10.70;99.90
12957;DHT22;6543;48.836;10.092;2023-08-08T02:16:23;10.60;99.90
12957;DHT22;6543;48.836;10.092;2023-08-08T02:18:50;10.60;99.90
12957;DHT22;6543;48.836;10.092;2023-08-08T02:21:17;10.70;99.90
12957;DHT22;6543;48.836;10.092;2023-08-08T02:23:44;10.70;99.90
12957;DHT22;6543;48.836;10.092;2023-08-08T02:26:10;10.70;99.90
12957;DHT22;6543;48.836;10.092;2023-08-08T02:28:37;10.70;99.90
12957;DHT22;6543;48.836;10.092;2023-08-08T02:31:04;10.70;99.90
12957;DHT22;6543;48.836;10.092;2023-08-08T02:33:32;10.70;99.90
12957;DHT22;6543;48.836;10.092;2023-08-08T02:35:59;10.70;99.90
12957;DHT22;6543;48.836;10.092;2023-08-08T02:38:26;10.70;99.90
12957;DHT22;6543;48.836;10.092;2023-08-08T02:40:52;10.70;99.90
12957;DHT22;6543;48.836;10.092;2023-08-08T02:43:19;10.80;99.90
12957;DHT22;6543;48.836;10.092;2023-08-08T02:45:46;10.90;99.90
12957;DHT22;6543;48.836;10.092;2023-08-08T02:48:13;10.90;99.90
12957;DHT22;6543;48.836;10.092;2023-08-08T02:50:41;11.00;99.90
12957;DHT22;6543;48.836;10.092;2023-08-08T02:53:08;11.00;99.90
12957;DHT22;6543;48.836;10.092;2023-08-08T02:55:36;11.10;99.90
12957;DHT22;6543;48.836;10.092;2023-08-08T02:58:03;11.20;99.90
12957;DHT22;6543;48.836;10.092;2023-08-08T03:00:30;11.30;99.90
12957;DHT22;6543;48.836;10.092;2023-08-08T03:02:56;11.30;99.90
12957;DHT22;6543;48.836;10.092;2023-08-08T03:05:23;11.30;99.90
12957;DHT22;6543;48.836;10.092;2023-08-08T03:07:51;11.30;99.90
12957;DHT22;6543;48.836;10.092;2023-08-08T03:10:18;11.30;99.90
12957;DHT22;6543;48.836;10.092;2023-08-08T03:12:46;11.20;99.90
12957;DHT22;6543;48.836;10.092;2023-08-08T03:15:13;11.20;99.90
12957;DHT22;6543;48.836;10.092;2023-08-08T03:17:40;11.30;99.90
12957;DHT22;6543;48.836;10.092;2023-08-08T03:20:07;11.30;99.90
12957;DHT22;6543;48.836;10.092;2023-08-08T03:22:36;11.30;99.90
12957;DHT22;6543;48.836;10.092;2023-08-08T03:25:05;11.20;99.90
12957;DHT22;6543;48.836;10.092;2023-08-08T03:27:32;11.20;99.90
12957;DHT22;6543;48.836;10.092;2023-08-08T03:29:59;11.10;99.90
12957;DHT22;6543;48.836;10.092;2023-08-08T03:32:27;11.00;99.90
12957;DHT22;6543;48.836;10.092;2023-08-08T03:34:54;11.00;99.90
12957;DHT22;6543;48.836;10.092;2023-08-08T03:37:21;11.00;99.90
12957;DHT22;6543;48.836;10.092;2023-08-08T03:39:48;10.90;99.90
12957;DHT22;6543;48.836;10.092;2023-08-08T03:42:16;10.90;99.90
12957;DHT22;6543;48.836;10.092;2023-08-08T03:44:43;10.90;99.90
12957;DHT22;6543;48.836;10.092;2023-08-08T03:47:11;10.90;99.90
12957;DHT22;6543;48.836;10.092;2023-08-08T03:49:38;10.90;99.90
12957;DHT22;6543;48.836;10.092;2023-08-08T03:52:05;10.90;99.90
12957;DHT22;6543;48.836;10.092;2023-08-08T03:54:32;10.90;99.90
12957;DHT22;6543;48.836;10.092;2023-08-08T03:56:59;11.00;99.90
12957;DHT22;6543;48.836;10.092;2023-08-08T03:59:28;10.90;99.90
12957;DHT22;6543;48.836;10.092;2023-08-08T04:01:54;10.90;99.90
12957;DHT22;6543;48.836;10.092;2023-08-08T04:04:21;10.90;99.90
12957;DHT22;6543;48.836;10.092;2023-08-08T04:06:48;10.90;99.90
12957;DHT22;6543;48.836;10.092;2023-08-08T04:09:15;10.80;99.90
12957;DHT22;6543;48.836;10.092;2023-08-08T04:11:42;10.80;99.90
12957;DHT22;6543;48.836;10.092;2023-08-08T04:14:09;10.70;99.90
12957;DHT22;6543;48.836;10.092;2023-08-08T04:16:38;10.70;99.90
12957;DHT22;6543;48.836;10.092;2023-08-08T04:19:05;10.70;99.90
12957;DHT22;6543;48.836;10.092;2023-08-08T04:21:32;10.60;99.90
12957;DHT22;6543;48.836;10.092;2023-08-08T04:23:59;10.70;99.90
12957;DHT22;6543;48.836;10.092;2023-08-08T04:26:26;10.70;99.90
12957;DHT22;6543;48.836;10.092;2023-08-08T04:28:53;10.70;99.90
12957;DHT22;6543;48.836;10.092;2023-08-08T04:31:20;10.70;99.90
12957;DHT22;6543;48.836;10.092;2023-08-08T04:33:51;10.70;99.90
12957;DHT22;6543;48.836;10.092;2023-08-08T04:36:21;10.80;99.90
12957;DHT22;6543;48.836;10.092;2023-08-08T04:38:48;10.90;99.90
12957;DHT22;6543;48.836;10.092;2023-08-08T04:41:15;11.00;99.90
12957;DHT22;6543;48.836;10.092;2023-08-08T04:43:42;11.10;99.90
12957;DHT22;6543;48.836;10.092;2023-08-08T04:46:09;11.20;99.90
12957;DHT22;6543;48.836;10.092;2023-08-08T04:48:36;11.30;99.90
12957;DHT22;6543;48.836;10.092;2023-08-08T04:51:06;11.40;99.90
12957;DHT22;6543;48.836;10.092;2023-08-08T04:53:33;11.40;99.90
12957;DHT22;6543;48.836;10.092;2023-08-08T04:56:00;11.40;99.90
12957;DHT22;6543;48.836;10.092;2023-08-08T04:58:27;11.40;99.90
12957;DHT22;6543;48.836;10.092;2023-08-08T05:00:53;11.50;99.90
12957;DHT22;6543;48.836;10.092;2023-08-08T05:03:21;11.60;99.90
12957;DHT22;6543;48.836;10.092;2023-08-08T05:05:48;11.70;99.90
12957;DHT22;6543;48.836;10.092;2023-08-08T05:08:16;11.90;99.90
12957;DHT22;6543;48.836;10.092;2023-08-08T05:10:43;12.00;99.90
12957;DHT22;6543;48.836;10.092;2023-08-08T05:13:10;12.10;99.90
12957;DHT22;6543;48.836;10.092;2023-08-08T05:15:37;12.20;99.90
12957;DHT22;6543;48.836;10.092;2023-08-08T05:18:04;12.40;99.90
12957;DHT22;6543;48.836;10.092;2023-08-08T05:20:31;12.50;99.90
12957;DHT22;6543;48.836;10.092;2023-08-08T05:22:58;12.70;99.90
12957;DHT22;6543;48.836;10.092;2023-08-08T05:25:26;12.70;99.90
12957;DHT22;6543;48.836;10.092;2023-08-08T05:27:53;12.80;99.90
12957;DHT22;6543;48.836;10.092;2023-08-08T05:30:20;13.10;99.90
12957;DHT22;6543;48.836;10.092;2023-08-08T05:32:46;13.00;99.90
12957;DHT22;6543;48.836;10.092;2023-08-08T05:35:13;13.10;99.90
12957;DHT22;6543;48.836;10.092;2023-08-08T05:37:40;13.10;99.90
12957;DHT22;6543;48.836;10.092;2023-08-08T05:40:08;13.00;99.90
12957;DHT22;6543;48.836;10.092;2023-08-08T05:42:37;13.10;99.90
12957;DHT22;6543;48.836;10.092;2023-08-08T05:45:05;13.10;99.90
12957;DHT22;6543;48.836;10.092;2023-08-08T05:47:32;13.20;99.90
12957;DHT22;6543;48.836;10.092;2023-08-08T05:49:59;13.30;99.90
12957;DHT22;6543;48.836;10.092;2023-08-08T05:52:25;13.30;99.90
12957;DHT22;6543;48.836;10.092;2023-08-08T05:54:52;13.30;99.90
12957;DHT22;6543;48.836;10.092;2023-08-08T05:57:19;13.40;99.90
12957;DHT22;6543;48.836;10.092;2023-08-08T05:59:48;13.50;99.90
12957;DHT22;6543;48.836;10.092;2023-08-08T06:02:15;13.70;99.90
12957;DHT22;6543;48.836;10.092;2023-08-08T06:04:42;13.60;99.90
12957;DHT22;6543;48.836;10.092;2023-08-08T06:07:10;13.50;99.90
12957;DHT22;6543;48.836;10.092;2023-08-08T06:09:37;13.50;99.90
12957;DHT22;6543;48.836;10.092;2023-08-08T06:12:05;13.50;99.90
12957;DHT22;6543;48.836;10.092;2023-08-08T06:14:32;13.60;99.90
12957;DHT22;6543;48.836;10.092;2023-08-08T06:17:00;13.70;99.90
12957;DHT22;6543;48.836;10.092;2023-08-08T06:19:27;13.90;99.90
12957;DHT22;6543;48.836;10.092;2023-08-08T06:21:54;14.10;99.90
12957;DHT22;6543;48.836;10.092;2023-08-08T06:24:20;14.10;99.90
12957;DHT22;6543;48.836;10.092;2023-08-08T06:26:47;14.20;99.90
12957;DHT22;6543;48.836;10.092;2023-08-08T06:29:14;14.30;99.90
12957;DHT22;6543;48.836;10.092;2023-08-08T06:31:41;14.40;99.90
12957;DHT22;6543;48.836;10.092;2023-08-08T06:34:09;14.50;99.90
12957;DHT22;6543;48.836;10.092;2023-08-08T06:36:36;14.70;99.90
12957;DHT22;6543;48.836;10.092;2023-08-08T06:39:03;14.80;99.90
12957;DHT22;6543;48.836;10.092;2023-08-08T06:41:31;15.00;99.90
12957;DHT22;6543;48.836;10.092;2023-08-08T06:43:58;15.10;99.90
12957;DHT22;6543;48.836;10.092;2023-08-08T06:46:25;15.10;99.90
12957;DHT22;6543;48.836;10.092;2023-08-08T06:48:51;15.00;99.90
12957;DHT22;6543;48.836;10.092;2023-08-08T06:51:23;15.10;99.90
12957;DHT22;6543;48.836;10.092;2023-08-08T06:53:51;15.20;99.90
12957;DHT22;6543;48.836;10.092;2023-08-08T06:56:18;15.40;99.90
12957;DHT22;6543;48.836;10.092;2023-08-08T06:58:44;15.40;99.90
12957;DHT22;6543;48.836;10.092;2023-08-08T07:01:11;15.40;99.90
12957;DHT22;6543;48.836;10.092;2023-08-08T07:03:39;15.50;99.90
12957;DHT22;6543;48.836;10.092;2023-08-08T07:06:05;15.60;99.90
12957;DHT22;6543;48.836;10.092;2023-08-08T07:08:34;15.70;99.90
12957;DHT22;6543;48.836;10.092;2023-08-08T07:11:01;15.80;99.90
12957;DHT22;6543;48.836;10.092;2023-08-08T07:13:27;15.90;99.90
12957;DHT22;6543;48.836;10.092;2023-08-08T07:15:54;15.80;99.90
12957;DHT22;6543;48.836;10.092;2023-08-08T07:18:21;15.90;99.90
12957;DHT22;6543;48.836;10.092;2023-08-08T07:20:48;15.90;99.90
12957;DHT22;6543;48.836;10.092;2023-08-08T07:23:15;16.00;99.90
12957;DHT22;6543;48.836;10.092;2023-08-08T07:25:45;16.10;99.90
12957;DHT22;6543;48.836;10.092;2023-08-08T07:28:12;16.10;99.90
12957;DHT22;6543;48.836;10.092;2023-08-08T07:30:40;16.10;99.90
12957;DHT22;6543;48.836;10.092;2023-08-08T07:33:07;16.30;99.90
12957;DHT22;6543;48.836;10.092;2023-08-08T07:35:34;16.40;99.90
12957;DHT22;6543;48.836;10.092;2023-08-08T07:38:01;16.40;99.90
12957;DHT22;6543;48.836;10.092;2023-08-08T07:40:28;16.60;99.90
12957;DHT22;6543;48.836;10.092;2023-08-08T07:42:56;16.50;99.90
12957;DHT22;6543;48.836;10.092;2023-08-08T07:45:23;16.60;99.90
12957;DHT22;6543;48.836;10.092;2023-08-08T07:47:50;16.70;99.90
12957;DHT22;6543;48.836;10.092;2023-08-08T07:50:16;16.70;99.90
12957;DHT22;6543;48.836;10.092;2023-08-08T07:52:44;16.50;99.90
12957;DHT22;6543;48.836;10.092;2023-08-08T07:55:10;16.50;99.90
12957;DHT22;6543;48.836;10.092;2023-08-08T07:57:37;16.80;99.90
12957;DHT22;6543;48.836;10.092;2023-08-08T08:00:07;16.90;99.90
12957;DHT22;6543;48.836;10.092;2023-08-08T08:02:35;17.10;99.90
12957;DHT22;6543;48.836;10.092;2023-08-08T08:05:02;16.70;99.90
12957;DHT22;6543;48.836;10.092;2023-08-08T08:07:30;16.80;99.90
12957;DHT22;6543;48.836;10.092;2023-08-08T08:09:57;17.00;99.90
12957;DHT22;6543;48.836;10.092;2023-08-08T08:12:24;17.00;99.90
12957;DHT22;6543;48.836;10.092;2023-08-08T08:14:51;17.00;99.90
12957;DHT22;6543;48.836;10.092;2023-08-08T08:17:19;17.20;99.90
12957;DHT22;6543;48.836;10.092;2023-08-08T08:19:46;17.30;99.90
12957;DHT22;6543;48.836;10.092;2023-08-08T08:22:13;17.40;99.90
12957;DHT22;6543;48.836;10.092;2023-08-08T08:24:40;17.40;99.90
12957;DHT22;6543;48.836;10.092;2023-08-08T08:27:07;17.20;99.90
12957;DHT22;6543;48.836;10.092;2023-08-08T08:29:34;17.40;99.90
12957;DHT22;6543;48.836;10.092;2023-08-08T08:32:00;17.90;99.90
12957;DHT22;6543;48.836;10.092;2023-08-08T08:34:29;18.00;99.90
12957;DHT22;6543;48.836;10.092;2023-08-08T08:36:55;18.40;99.90
12957;DHT22;6543;48.836;10.092;2023-08-08T08:39:22;18.10;99.90
12957;DHT22;6543;48.836;10.092;2023-08-08T08:41:53;18.30;99.90
12957;DHT22;6543;48.836;10.092;2023-08-08T08:44:21;18.60;99.90
12957;DHT22;6543;48.836;10.092;2023-08-08T08:46:50;18.30;99.90
12957;DHT22;6543;48.836;10.092;2023-08-08T08:49:18;18.60;99.90
12957;DHT22;6543;48.836;10.092;2023-08-08T08:51:49;18.80;99.90
12957;DHT22;6543;48.836;10.092;2023-08-08T08:54:17;18.40;99.90
12957;DHT22;6543;48.836;10.092;2023-08-08T08:56:44;18.50;99.90
12957;DHT22;6543;48.836;10.092;2023-08-08T08:59:11;18.30;99.90
12957;DHT22;6543;48.836;10.092;2023-08-08T09:01:39;18.80;99.90
12957;DHT22;6543;48.836;10.092;2023-08-08T09:04:07;18.70;99.90
12957;DHT22;6543;48.836;10.092;2023-08-08T09:06:35;18.40;99.90
12957;DHT22;6543;48.836;10.092;2023-08-08T09:09:05;18.30;99.90
12957;DHT22;6543;48.836;10.092;2023-08-08T09:11:32;18.50;99.90
12957;DHT22;6543;48.836;10.092;2023-08-08T09:13:59;18.90;99.90
12957;DHT22;6543;48.836;10.092;2023-08-08T09:16:28;18.40;99.90
12957;DHT22;6543;48.836;10.092;2023-08-08T09:18:55;18.30;99.90
12957;DHT22;6543;48.836;10.092;2023-08-08T09:21:22;18.80;99.90
12957;DHT22;6543;48.836;10.092;2023-08-08T09:23:49;18.70;99.90
12957;DHT22;6543;48.836;10.092;2023-08-08T09:26:17;19.00;99.90
12957;DHT22;6543;48.836;10.092;2023-08-08T09:28:44;19.10;99.90
12957;DHT22;6543;48.836;10.092;2023-08-08T09:31:11;19.50;99.90
12957;DHT22;6543;48.836;10.092;2023-08-08T09:33:38;19.80;99.90
12957;DHT22;6543;48.836;10.092;2023-08-08T09:36:06;19.80;99.90
12957;DHT22;6543;48.836;10.092;2023-08-08T09:38:33;19.80;99.90
12957;DHT22;6543;48.836;10.092;2023-08-08T09:41:00;19.60;99.90
12957;DHT22;6543;48.836;10.092;2023-08-08T09:43:28;19.50;99.90
12957;DHT22;6543;48.836;10.092;2023-08-08T09:45:55;19.80;99.90
12957;DHT22;6543;48.836;10.092;2023-08-08T09:48:23;19.40;99.90
12957;DHT22;6543;48.836;10.092;2023-08-08T09:50:56;19.50;99.90
12957;DHT22;6543;48.836;10.092;2023-08-08T09:53:25;19.10;99.90
12957;DHT22;6543;48.836;10.092;2023-08-08T09:55:54;19.20;99.90
12957;DHT22;6543;48.836;10.092;2023-08-08T09:58:21;19.10;99.90
12957;DHT22;6543;48.836;10.092;2023-08-08T10:00:50;19.30;99.90
12957;DHT22;6543;48.836;10.092;2023-08-08T10:03:17;19.40;99.90
12957;DHT22;6543;48.836;10.092;2023-08-08T10:05:44;19.20;99.90
12957;DHT22;6543;48.836;10.092;2023-08-08T10:08:11;19.20;99.90
12957;DHT22;6543;48.836;10.092;2023-08-08T10:10:39;19.40;99.90
12957;DHT22;6543;48.836;10.092;2023-08-08T10:13:07;19.50;99.90
12957;DHT22;6543;48.836;10.092;2023-08-08T10:15:37;19.20;99.90
12957;DHT22;6543;48.836;10.092;2023-08-08T10:18:06;19.30;99.90
12957;DHT22;6543;48.836;10.092;2023-08-08T10:20:33;19.10;99.90
12957;DHT22;6543;48.836;10.092;2023-08-08T10:23:03;19.20;99.90
12957;DHT22;6543;48.836;10.092;2023-08-08T10:25:31;19.20;99.90
12957;DHT22;6543;48.836;10.092;2023-08-08T10:28:06;19.30;99.90
12957;DHT22;6543;48.836;10.092;2023-08-08T10:30:42;19.50;99.90
12957;DHT22;6543;48.836;10.092;2023-08-08T10:33:17;19.50;99.90
12957;DHT22;6543;48.836;10.092;2023-08-08T10:35:56;19.40;99.90
12957;DHT22;6543;48.836;10.092;2023-08-08T10:38:24;19.90;99.90
12957;DHT22;6543;48.836;10.092;2023-08-08T10:40:56;20.00;99.90
12957;DHT22;6543;48.836;10.092;2023-08-08T10:43:28;20.10;99.90
12957;DHT22;6543;48.836;10.092;2023-08-08T10:46:00;20.60;99.90
12957;DHT22;6543;48.836;10.092;2023-08-08T10:48:29;20.30;99.90
12957;DHT22;6543;48.836;10.092;2023-08-08T10:50:58;20.60;99.90
12957;DHT22;6543;48.836;10.092;2023-08-08T10:53:26;20.40;99.90
12957;DHT22;6543;48.836;10.092;2023-08-08T10:56:00;20.20;99.90
12957;DHT22;6543;48.836;10.092;2023-08-08T10:58:47;20.30;99.90
12957;DHT22;6543;48.836;10.092;2023-08-08T11:01:14;20.60;99.90
12957;DHT22;6543;48.836;10.092;2023-08-08T11:03:44;20.40;99.90
12957;DHT22;6543;48.836;10.092;2023-08-08T11:06:11;20.40;99.90
12957;DHT22;6543;48.836;10.092;2023-08-08T11:08:38;20.80;99.90
12957;DHT22;6543;48.836;10.092;2023-08-08T11:11:06;20.90;99.90
12957;DHT22;6543;48.836;10.092;2023-08-08T11:13:33;20.60;99.90
12957;DHT22;6543;48.836;10.092;2023-08-08T11:16:00;20.50;99.90
12957;DHT22;6543;48.836;10.092;2023-08-08T11:18:28;20.50;99.90
12957;DHT22;6543;48.836;10.092;2023-08-08T11:20:56;20.50;99.90
12957;DHT22;6543;48.836;10.092;2023-08-08T11:23:23;20.20;99.90
12957;DHT22;6543;48.836;10.092;2023-08-08T11:25:50;20.00;99.90
12957;DHT22;6543;48.836;10.092;2023-08-08T11:28:17;20.20;99.90
12957;DHT22;6543;48.836;10.092;2023-08-08T11:30:46;20.70;99.90
12957;DHT22;6543;48.836;10.092;2023-08-08T11:33:13;20.50;99.90
12957;DHT22;6543;48.836;10.092;2023-08-08T11:35:45;20.70;99.90
12957;DHT22;6543;48.836;10.092;2023-08-08T11:38:16;20.40;99.90
12957;DHT22;6543;48.836;10.092;2023-08-08T11:40:44;20.90;99.90
12957;DHT22;6543;48.836;10.092;2023-08-08T11:43:11;20.60;99.90
12957;DHT22;6543;48.836;10.092;2023-08-08T11:45:39;20.30;99.90
12957;DHT22;6543;48.836;10.092;2023-08-08T11:48:08;20.50;99.90
12957;DHT22;6543;48.836;10.092;2023-08-08T11:50:37;20.60;99.90
12957;DHT22;6543;48.836;10.092;2023-08-08T11:53:04;20.70;99.90
12957;DHT22;6543;48.836;10.092;2023-08-08T11:55:33;20.70;99.90
12957;DHT22;6543;48.836;10.092;2023-08-08T11:58:00;20.90;99.90
12957;DHT22;6543;48.836;10.092;2023-08-08T12:00:28;20.80;99.90
12957;DHT22;6543;48.836;10.092;2023-08-08T12:02:57;21.00;99.90
12957;DHT22;6543;48.836;10.092;2023-08-08T12:05:24;21.00;99.90
12957;DHT22;6543;48.836;10.092;2023-08-08T12:07:51;20.60;99.90
12957;DHT22;6543;48.836;10.092;2023-08-08T12:10:20;20.70;99.90
12957;DHT22;6543;48.836;10.092;2023-08-08T12:12:53;21.00;99.90
12957;DHT22;6543;48.836;10.092;2023-08-08T12:15:20;21.30;99.90
12957;DHT22;6543;48.836;10.092;2023-08-08T12:17:47;21.10;99.90
12957;DHT22;6543;48.836;10.092;2023-08-08T12:20:15;20.80;99.90
12957;DHT22;6543;48.836;10.092;2023-08-08T12:22:42;20.80;99.90
12957;DHT22;6543;48.836;10.092;2023-08-08T12:25:08;21.20;99.90
12957;DHT22;6543;48.836;10.092;2023-08-08T12:27:36;21.60;99.90
12957;DHT22;6543;48.836;10.092;2023-08-08T12:30:07;21.40;99.90
12957;DHT22;6543;48.836;10.092;2023-08-08T12:32:34;21.40;99.90
12957;DHT22;6543;48.836;10.092;2023-08-08T12:35:01;21.70;99.90
12957;DHT22;6543;48.836;10.092;2023-08-08T12:37:28;21.60;99.90
12957;DHT22;6543;48.836;10.092;2023-08-08T12:39:54;21.20;99.90
12957;DHT22;6543;48.836;10.092;2023-08-08T12:42:22;21.00;99.90
12957;DHT22;6543;48.836;10.092;2023-08-08T12:44:49;21.00;99.90
12957;DHT22;6543;48.836;10.092;2023-08-08T12:47:18;21.40;99.90
12957;DHT22;6543;48.836;10.092;2023-08-08T12:49:46;21.50;99.90
12957;DHT22;6543;48.836;10.092;2023-08-08T12:52:13;21.30;99.90
12957;DHT22;6543;48.836;10.092;2023-08-08T12:54:40;21.70;99.90
12957;DHT22;6543;48.836;10.092;2023-08-08T12:57:07;21.50;99.90
12957;DHT22;6543;48.836;10.092;2023-08-08T12:59:34;21.30;99.90
12957;DHT22;6543;48.836;10.092;2023-08-08T13:02:01;21.80;99.90
12957;DHT22;6543;48.836;10.092;2023-08-08T13:04:29;21.90;99.90
12957;DHT22;6543;48.836;10.092;2023-08-08T13:06:56;21.90;99.90
12957;DHT22;6543;48.836;10.092;2023-08-08T13:09:23;22.10;99.90
12957;DHT22;6543;48.836;10.092;2023-08-08T13:11:50;21.90;99.90
12957;DHT22;6543;48.836;10.092;2023-08-08T13:14:16;21.50;99.90
12957;DHT22;6543;48.836;10.092;2023-08-08T13:16:43;21.90;99.90
12957;DHT22;6543;48.836;10.092;2023-08-08T13:19:11;21.60;99.90
12957;DHT22;6543;48.836;10.092;2023-08-08T13:21:39;21.70;99.90
12957;DHT22;6543;48.836;10.092;2023-08-08T13:24:07;21.70;99.90
12957;DHT22;6543;48.836;10.092;2023-08-08T13:26:35;22.00;99.90
12957;DHT22;6543;48.836;10.092;2023-08-08T13:29:02;22.00;99.90
12957;DHT22;6543;48.836;10.092;2023-08-08T13:31:29;21.70;99.90
12957;DHT22;6543;48.836;10.092;2023-08-08T13:33:56;21.90;99.90
12957;DHT22;6543;48.836;10.092;2023-08-08T13:36:23;22.00;99.90
12957;DHT22;6543;48.836;10.092;2023-08-08T13:38:51;21.70;99.90
12957;DHT22;6543;48.836;10.092;2023-08-08T13:41:18;21.80;99.90
12957;DHT22;6543;48.836;10.092;2023-08-08T13:43:45;21.70;99.90
12957;DHT22;6543;48.836;10.092;2023-08-08T13:46:11;21.20;99.90
12957;DHT22;6543;48.836;10.092;2023-08-08T13:48:38;21.40;99.90
12957;DHT22;6543;48.836;10.092;2023-08-08T13:51:05;21.40;99.90
12957;DHT22;6543;48.836;10.092;2023-08-08T13:53:33;21.30;99.90
12957;DHT22;6543;48.836;10.092;2023-08-08T13:56:01;21.50;99.90
12957;DHT22;6543;48.836;10.092;2023-08-08T13:58:28;21.90;99.90
12957;DHT22;6543;48.836;10.092;2023-08-08T14:00:55;21.50;99.90
12957;DHT22;6543;48.836;10.092;2023-08-08T14:03:22;21.40;99.90
12957;DHT22;6543;48.836;10.092;2023-08-08T14:05:49;21.10;99.90
12957;DHT22;6543;48.836;10.092;2023-08-08T14:08:18;21.10;99.90
12957;DHT22;6543;48.836;10.092;2023-08-08T14:10:45;21.10;99.90
12957;DHT22;6543;48.836;10.092;2023-08-08T14:13:14;21.30;99.90
12957;DHT22;6543;48.836;10.092;2023-08-08T14:15:41;21.50;99.90
12957;DHT22;6543;48.836;10.092;2023-08-08T14:18:08;21.80;99.90
12957;DHT22;6543;48.836;10.092;2023-08-08T14:20:36;21.90;99.90
12957;DHT22;6543;48.836;10.092;2023-08-08T14:23:03;21.70;99.90
12957;DHT22;6543;48.836;10.092;2023-08-08T14:25:31;21.70;99.90
12957;DHT22;6543;48.836;10.092;2023-08-08T14:27:57;21.20;99.90
12957;DHT22;6543;48.836;10.092;2023-08-08T14:30:26;21.50;99.90
12957;DHT22;6543;48.836;10.092;2023-08-08T14:32:54;21.60;99.90
12957;DHT22;6543;48.836;10.092;2023-08-08T14:35:21;21.40;99.90
12957;DHT22;6543;48.836;10.092;2023-08-08T14:37:47;21.30;99.90
12957;DHT22;6543;48.836;10.092;2023-08-08T14:40:14;20.90;99.90
12957;DHT22;6543;48.836;10.092;2023-08-08T14:42:41;20.90;99.90
12957;DHT22;6543;48.836;10.092;2023-08-08T14:45:09;20.80;99.90
12957;DHT22;6543;48.836;10.092;2023-08-08T14:47:37;20.60;99.90
12957;DHT22;6543;48.836;10.092;2023-08-08T14:50:06;20.60;99.90
12957;DHT22;6543;48.836;10.092;2023-08-08T14:52:33;20.60;99.90
12957;DHT22;6543;48.836;10.092;2023-08-08T14:55:01;20.50;99.90
12957;DHT22;6543;48.836;10.092;2023-08-08T14:57:27;20.80;99.90
12957;DHT22;6543;48.836;10.092;2023-08-08T14:59:54;20.90;99.90
12957;DHT22;6543;48.836;10.092;2023-08-08T15:02:21;20.80;99.90
12957;DHT22;6543;48.836;10.092;2023-08-08T15:04:49;20.90;99.90
12957;DHT22;6543;48.836;10.092;2023-08-08T15:07:16;21.20;99.90
12957;DHT22;6543;48.836;10.092;2023-08-08T15:09:43;21.90;99.90
12957;DHT22;6543;48.836;10.092;2023-08-08T15:12:14;21.40;99.90
12957;DHT22;6543;48.836;10.092;2023-08-08T15:14:41;22.00;99.90
12957;DHT22;6543;48.836;10.092;2023-08-08T15:17:08;23.10;99.90
12957;DHT22;6543;48.836;10.092;2023-08-08T15:19:35;23.10;99.90
12957;DHT22;6543;48.836;10.092;2023-08-08T15:22:05;22.80;99.90
12957;DHT22;6543;48.836;10.092;2023-08-08T15:24:32;22.70;99.90
12957;DHT22;6543;48.836;10.092;2023-08-08T15:27:01;22.70;99.90
12957;DHT22;6543;48.836;10.092;2023-08-08T15:29:28;22.50;99.90
12957;DHT22;6543;48.836;10.092;2023-08-08T15:31:55;21.80;99.90